Time;durP1;ratioP1;P1;durP2;ratioP2;P2;SDS_P1;SDS_P2;PMS_P1;PMS_P2;Temp;Humidity;BMP_temperature;BMP_pressure;BME280_temperature;BME280_humidity;BME280_pressure;Samples;Min_cycle;Max_cycle;Signal;HPM_P1;HPM_P2
2021/11/05 00:01:51;;;;;;;9.73;7.47;;;6.50;99.90;;;;;;5064384;28;20040;-43
2021/11/05 00:04:16;;;;;;;9.80;8.13;;;6.50;99.90;;;;;;5058097;28;20039;-42
2021/11/05 00:06:42;;;;;;;9.52;7.40;;;6.60;99.90;;;;;;5060563;28;20187;-43
2021/11/05 00:09:11;;;;;;;8.85;7.50;;;6.60;99.90;;;;;;5062692;28;20851;-43
2021/11/05 00:11:36;;;;;;;8.15;6.78;;;6.60;99.90;;;;;;5063454;28;20068;-42
2021/11/05 00:14:02;;;;;;;8.70;6.95;;;6.70;99.90;;;;;;5065395;28;20053;-43
2021/11/05 00:16:28;;;;;;;8.57;6.85;;;6.70;99.90;;;;;;5060530;28;20113;-42
2021/11/05 00:18:54;;;;;;;8.00;6.55;;;6.70;99.90;;;;;;5068033;28;20013;-43
2021/11/05 00:21:19;;;;;;;8.93;7.40;;;6.70;99.90;;;;;;5057801;28;20537;-42
2021/11/05 00:23:45;;;;;;;9.40;6.95;;;6.70;99.90;;;;;;5067737;28;20039;-43
2021/11/05 00:26:10;;;;;;;8.05;6.57;;;6.80;99.90;;;;;;5058581;28;20106;-43
2021/11/05 00:28:36;;;;;;;8.80;7.47;;;6.70;99.90;;;;;;5069270;28;20082;-43
2021/11/05 00:31:05;;;;;;;7.95;6.75;;;6.80;99.90;;;;;;5054859;28;20408;-42
2021/11/05 00:33:31;;;;;;;10.40;7.68;;;6.70;99.90;;;;;;5049583;28;20400;-42
2021/11/05 00:35:56;;;;;;;8.73;7.00;;;6.80;99.90;;;;;;5053472;28;20037;-42
2021/11/05 00:38:22;;;;;;;8.93;7.10;;;6.70;99.90;;;;;;5069627;28;20094;-42
2021/11/05 00:40:47;;;;;;;8.55;7.50;;;6.70;99.90;;;;;;5058380;28;20485;-43
2021/11/05 00:43:16;;;;;;;8.82;6.55;;;6.70;99.90;;;;;;5066769;28;20021;-43
2021/11/05 00:45:41;;;;;;;9.70;6.20;;;6.70;99.90;;;;;;5059497;28;20033;-43
2021/11/05 00:48:13;;;;;;;8.65;6.93;;;6.70;99.90;;;;;;5065628;28;20025;-42
2021/11/05 00:50:39;;;;;;;7.82;6.90;;;6.70;99.90;;;;;;5061084;28;20029;-43
2021/11/05 00:53:07;;;;;;;8.80;6.68;;;6.70;99.90;;;;;;5064061;28;20024;-43
2021/11/05 00:55:33;;;;;;;8.82;7.30;;;6.70;99.90;;;;;;5062739;28;20033;-42
2021/11/05 00:57:58;;;;;;;9.82;7.28;;;6.70;99.90;;;;;;5060669;28;20442;-43
2021/11/05 01:00:24;;;;;;;9.52;7.13;;;6.70;99.90;;;;;;5066365;28;20472;-43
2021/11/05 01:02:49;;;;;;;8.63;6.95;;;6.70;99.90;;;;;;5057673;28;20024;-42
2021/11/05 01:05:18;;;;;;;9.18;7.07;;;6.70;99.90;;;;;;5067515;28;20074;-43
2021/11/05 01:07:43;;;;;;;8.52;7.05;;;6.70;99.90;;;;;;5056883;28;20051;-43
2021/11/05 01:10:10;;;;;;;8.35;6.18;;;6.70;99.90;;;;;;5067776;28;20630;-42
2021/11/05 01:12:36;;;;;;;9.13;6.88;;;6.70;99.90;;;;;;5056985;28;20029;-43
2021/11/05 01:15:01;;;;;;;7.20;6.35;;;6.70;99.90;;;;;;5068625;28;20023;-42
2021/11/05 01:17:27;;;;;;;8.00;6.65;;;6.70;99.90;;;;;;5055125;28;20060;-43
2021/11/05 01:19:52;;;;;;;7.97;6.25;;;6.70;99.90;;;;;;5067456;28;20020;-43
2021/11/05 01:22:18;;;;;;;8.00;6.10;;;6.80;99.90;;;;;;5056329;28;20392;-43
2021/11/05 01:24:44;;;;;;;8.80;6.35;;;6.80;99.90;;;;;;5067307;28;20062;-43
2021/11/05 01:27:09;;;;;;;16.58;8.18;;;6.80;99.90;;;;;;5059200;28;20060;-44
2021/11/05 01:29:35;;;;;;;17.58;9.10;;;6.80;99.90;;;;;;5065199;28;20024;-43
2021/11/05 01:32:01;;;;;;;14.13;7.75;;;6.80;99.90;;;;;;5056893;28;20048;-43
2021/11/05 01:34:27;;;;;;;11.77;7.45;;;6.80;99.90;;;;;;5062732;28;20031;-42
2021/11/05 01:36:53;;;;;;;15.15;8.40;;;6.80;99.90;;;;;;5063807;28;20017;-43
2021/11/05 01:39:18;;;;;;;16.80;8.23;;;6.80;99.90;;;;;;5060025;28;20037;-43
2021/11/05 01:41:44;;;;;;;12.00;7.65;;;6.80;99.90;;;;;;5065793;28;20407;-43
2021/11/05 01:44:10;;;;;;;10.82;7.35;;;6.70;99.90;;;;;;5057101;28;20017;-44
2021/11/05 01:46:41;;;;;;;13.07;8.75;;;6.70;99.90;;;;;;5066222;28;20028;-43
2021/11/05 01:49:13;;;;;;;11.35;7.38;;;6.70;99.90;;;;;;5057087;28;20028;-42
2021/11/05 01:51:41;;;;;;;9.93;8.48;;;6.70;99.90;;;;;;5066297;28;20029;-42
2021/11/05 01:54:10;;;;;;;10.07;8.23;;;6.70;99.90;;;;;;5056542;28;20028;-42
2021/11/05 01:56:41;;;;;;;9.95;6.97;;;6.70;99.90;;;;;;5059796;28;20071;-42
2021/11/05 01:59:06;;;;;;;9.60;7.50;;;6.60;99.90;;;;;;5054775;28;20032;-42
2021/11/05 02:01:34;;;;;;;8.02;5.85;;;6.60;99.90;;;;;;5068082;28;20020;-43
2021/11/05 02:04:00;;;;;;;9.60;6.60;;;6.70;99.90;;;;;;5054307;28;20445;-44
2021/11/05 02:06:27;;;;;;;9.18;6.70;;;6.60;99.90;;;;;;5067311;28;20020;-44
2021/11/05 02:08:53;;;;;;;8.63;6.45;;;6.60;99.90;;;;;;5055079;28;20024;-44
2021/11/05 02:11:20;;;;;;;8.65;5.70;;;6.60;99.90;;;;;;5067479;28;20506;-43
2021/11/05 02:13:47;;;;;;;8.80;5.97;;;6.60;99.90;;;;;;5056173;28;20021;-43
2021/11/05 02:16:14;;;;;;;8.88;6.32;;;6.70;99.90;;;;;;5065695;28;20048;-44
2021/11/05 02:18:40;;;;;;;8.02;5.75;;;6.70;99.90;;;;;;5059534;28;20120;-43
2021/11/05 02:21:15;;;;;;;7.82;5.18;;;6.70;99.90;;;;;;5062358;28;20032;-43
2021/11/05 02:23:42;;;;;;;7.60;5.40;;;6.60;99.90;;;;;;5060470;28;20037;-43
2021/11/05 02:26:08;;;;;;;6.53;5.18;;;6.60;99.90;;;;;;5061202;28;20020;-43
2021/11/05 02:28:37;;;;;;;5.85;4.43;;;6.60;99.90;;;;;;5063100;28;20496;-43
2021/11/05 02:31:03;;;;;;;9.40;4.80;;;6.60;99.90;;;;;;5058103;28;20036;-42
2021/11/05 02:33:28;;;;;;;5.80;4.50;;;6.70;99.90;;;;;;5050354;28;20032;-42
2021/11/05 02:35:54;;;;;;;7.50;4.93;;;6.70;99.90;;;;;;5055967;28;20110;-43
2021/11/05 02:38:24;;;;;;;7.03;4.30;;;6.70;99.90;;;;;;5065829;28;20049;-43
2021/11/05 02:40:51;;;;;;;5.10;4.35;;;6.70;99.90;;;;;;5055878;28;20021;-43
2021/11/05 02:43:16;;;;;;;5.53;4.00;;;6.70;99.90;;;;;;5065931;28;20028;-43
2021/11/05 02:45:50;;;;;;;4.68;3.92;;;6.70;99.90;;;;;;5055140;28;20024;-43
2021/11/05 02:48:16;;;;;;;5.88;4.20;;;6.70;99.90;;;;;;5066763;28;20044;-42
2021/11/05 02:50:42;;;;;;;6.32;3.53;;;6.70;99.90;;;;;;5053738;28;20013;-43
2021/11/05 02:53:08;;;;;;;6.38;3.70;;;6.70;99.90;;;;;;5067343;28;20376;-43
2021/11/05 02:55:33;;;;;;;4.38;3.22;;;6.70;99.90;;;;;;5053083;28;20021;-43
2021/11/05 02:58:00;;;;;;;3.97;2.78;;;6.70;99.90;;;;;;5066908;28;20040;-43
2021/11/05 03:00:26;;;;;;;5.10;3.05;;;6.70;99.90;;;;;;5056092;28;20112;-43
2021/11/05 03:02:51;;;;;;;5.03;2.90;;;6.70;99.90;;;;;;5064901;28;20115;-43
2021/11/05 03:05:17;;;;;;;3.55;2.70;;;6.70;99.90;;;;;;5058868;28;20111;-43
2021/11/05 03:07:42;;;;;;;6.18;2.88;;;6.70;99.90;;;;;;5062217;28;20036;-42
2021/11/05 03:10:13;;;;;;;6.18;3.72;;;6.70;99.90;;;;;;5061303;28;20025;-43
2021/11/05 03:12:39;;;;;;;8.55;2.72;;;6.70;99.90;;;;;;5060088;28;20513;-43
2021/11/05 03:15:05;;;;;;;4.38;2.97;;;6.70;99.90;;;;;;5062944;28;20028;-43
2021/11/05 03:17:35;;;;;;;4.63;2.70;;;6.70;99.90;;;;;;5057647;28;20032;-42
2021/11/05 03:20:00;;;;;;;4.10;2.78;;;6.70;99.90;;;;;;5065170;28;20021;-43
2021/11/05 03:22:26;;;;;;;4.32;2.60;;;6.70;99.90;;;;;;5055378;28;20165;-42
2021/11/05 03:24:52;;;;;;;6.03;2.72;;;6.80;99.90;;;;;;5064677;28;20024;-44
2021/11/05 03:27:17;;;;;;;6.53;2.67;;;6.70;99.90;;;;;;5056138;28;20028;-43
2021/11/05 03:29:43;;;;;;;5.13;2.63;;;6.80;99.90;;;;;;5066151;28;20029;-43
2021/11/05 03:32:09;;;;;;;4.05;2.33;;;6.80;99.90;;;;;;5050310;28;20072;-45
2021/11/05 03:34:35;;;;;;;3.53;2.47;;;6.80;99.90;;;;;;5046226;28;20017;-43
2021/11/05 03:37:06;;;;;;;3.88;2.60;;;6.80;99.90;;;;;;5058546;28;20510;-43
2021/11/05 03:39:32;;;;;;;5.75;2.30;;;6.80;99.90;;;;;;5046672;28;20021;-43
2021/11/05 03:41:59;;;;;;;9.27;2.50;;;6.90;99.90;;;;;;5058382;28;20021;-43
2021/11/05 03:44:24;;;;;;;5.32;2.25;;;6.90;99.90;;;;;;5049577;28;20029;-43
2021/11/05 03:46:50;;;;;;;4.22;2.28;;;6.90;99.90;;;;;;5059493;28;20070;-44
2021/11/05 03:49:16;;;;;;;4.38;2.25;;;6.90;99.90;;;;;;5053988;28;20029;-43
2021/11/05 03:51:42;;;;;;;4.05;2.45;;;6.90;99.90;;;;;;5056013;28;20166;-44
2021/11/05 03:54:08;;;;;;;6.82;2.90;;;6.90;99.90;;;;;;5056451;28;20036;-43
2021/11/05 03:56:37;;;;;;;5.18;3.35;;;6.90;99.90;;;;;;5054331;28;20080;-43
2021/11/05 03:59:03;;;;;;;5.55;3.40;;;6.90;99.90;;;;;;5056562;28;20103;-42
2021/11/05 04:01:29;;;;;;;4.35;3.00;;;6.90;99.90;;;;;;5052437;28;20024;-43
2021/11/05 04:03:54;;;;;;;8.38;3.55;;;6.90;99.90;;;;;;5060555;28;20013;-43
2021/11/05 04:06:22;;;;;;;4.60;2.78;;;6.90;99.90;;;;;;5050742;28;20024;-43
2021/11/05 04:08:48;;;;;;;6.03;2.45;;;7.00;99.90;;;;;;5068851;28;20024;-43
2021/11/05 04:11:15;;;;;;;3.90;2.30;;;6.90;99.90;;;;;;5069143;28;20110;-44
2021/11/05 04:13:40;;;;;;;3.38;2.08;;;6.90;99.90;;;;;;5057347;28;20028;-43
2021/11/05 04:16:09;;;;;;;5.93;1.80;;;6.90;99.90;;;;;;5070037;28;20028;-43
2021/11/05 04:18:35;;;;;;;3.45;2.03;;;6.80;99.90;;;;;;5056875;28;20025;-43
2021/11/05 04:21:01;;;;;;;4.03;1.95;;;6.80;99.90;;;;;;5069614;28;20036;-43
2021/11/05 04:23:27;;;;;;;3.10;1.92;;;6.70;99.90;;;;;;5056665;28;20052;-43
2021/11/05 04:25:52;;;;;;;3.50;2.00;;;6.70;99.90;;;;;;5069798;28;20082;-43
2021/11/05 04:28:18;;;;;;;4.15;1.85;;;6.60;99.90;;;;;;5059514;28;20029;-43
2021/11/05 04:30:45;;;;;;;2.88;1.70;;;6.50;99.90;;;;;;5067172;28;20082;-43
2021/11/05 04:33:11;;;;;;;4.00;1.70;;;6.50;99.90;;;;;;5055474;28;20029;-43
2021/11/05 04:35:38;;;;;;;4.18;2.00;;;6.40;99.90;;;;;;5063851;28;20033;-44
2021/11/05 04:38:04;;;;;;;4.20;1.90;;;6.40;99.90;;;;;;5064502;28;20033;-43
2021/11/05 04:40:29;;;;;;;3.33;2.20;;;6.30;99.90;;;;;;5062430;28;20024;-43
2021/11/05 04:42:55;;;;;;;2.53;2.00;;;6.30;99.90;;;;;;5065874;28;20026;-43
2021/11/05 04:45:21;;;;;;;3.55;2.10;;;6.20;99.90;;;;;;5059879;28;20036;-43
2021/11/05 04:47:47;;;;;;;2.47;2.05;;;6.20;99.90;;;;;;5067011;28;20477;-43
2021/11/05 04:50:12;;;;;;;2.72;2.17;;;6.20;99.90;;;;;;5058339;28;20021;-43
2021/11/05 04:52:39;;;;;;;2.95;2.38;;;6.10;99.90;;;;;;5067847;28;20037;-43
2021/11/05 04:55:06;;;;;;;3.13;2.40;;;6.10;99.90;;;;;;5059116;28;20029;-43
2021/11/05 04:57:32;;;;;;;5.93;3.00;;;6.00;99.90;;;;;;5048871;28;20067;-43
2021/11/05 04:59:58;;;;;;;9.63;3.45;;;6.00;99.90;;;;;;5061102;28;20029;-43
2021/11/05 05:02:24;;;;;;;4.30;3.30;;;6.00;99.90;;;;;;5048305;28;20060;-43
2021/11/05 05:04:50;;;;;;;7.35;3.35;;;5.90;99.90;;;;;;5061483;28;20032;-44
2021/11/05 05:07:16;;;;;;;19.27;3.80;;;6.00;99.90;;;;;;5049326;28;20049;-42
2021/11/05 05:09:42;;;;;;;13.40;3.80;;;6.00;99.90;;;;;;5057759;28;20116;-43
2021/11/05 05:12:08;;;;;;;25.75;3.88;;;6.00;99.90;;;;;;5050933;28;20029;-43
2021/11/05 05:14:33;;;;;;;10.27;3.53;;;6.00;99.90;;;;;;5056321;28;20111;-43
2021/11/05 05:16:59;;;;;;;34.63;4.07;;;6.00;99.90;;;;;;5052377;28;20397;-41
2021/11/05 05:19:24;;;;;;;20.05;3.80;;;6.00;99.90;;;;;;5053113;28;20074;-43
2021/11/05 05:21:50;;;;;;;17.25;3.30;;;6.10;99.90;;;;;;5056240;28;20119;-42
2021/11/05 05:24:16;;;;;;;46.53;4.10;;;6.10;99.90;;;;;;5049947;28;20106;-43
2021/11/05 05:26:42;;;;;;;25.98;3.40;;;6.10;99.90;;;;;;5057475;28;20530;-42
2021/11/05 05:29:07;;;;;;;33.00;3.58;;;6.10;99.90;;;;;;5050187;28;20104;-42
2021/11/05 05:31:33;;;;;;;33.95;3.55;;;6.20;99.90;;;;;;5058482;28;20139;-43
2021/11/05 05:33:59;;;;;;;36.05;3.80;;;6.20;99.90;;;;;;5048980;28;20096;-43
2021/11/05 05:36:25;;;;;;;19.85;3.33;;;6.20;99.90;;;;;;5056280;28;20013;-43
2021/11/05 05:38:51;;;;;;;38.47;3.58;;;6.20;99.90;;;;;;5068260;28;20194;-43
2021/11/05 05:41:17;;;;;;;51.97;3.50;;;6.10;99.90;;;;;;5055734;28;20035;-43
2021/11/05 05:43:43;;;;;;;51.63;3.90;;;6.10;99.90;;;;;;5067737;28;20374;-43
2021/11/05 05:46:09;;;;;;;50.03;4.10;;;6.10;99.90;;;;;;5055368;28;20036;-43
2021/11/05 05:48:34;;;;;;;37.95;4.22;;;6.00;99.90;;;;;;5067442;28;20038;-43
2021/11/05 05:51:00;;;;;;;43.67;4.38;;;6.00;99.90;;;;;;5058032;28;20025;-43
2021/11/05 05:53:26;;;;;;;20.77;3.78;;;6.00;99.90;;;;;;5064678;28;20464;-43
2021/11/05 05:55:51;;;;;;;47.92;4.30;;;6.00;99.90;;;;;;5060341;28;20410;-43
2021/11/05 05:58:17;;;;;;;41.58;4.57;;;6.00;99.90;;;;;;5062080;28;20354;-43
2021/11/05 06:00:43;;;;;;;36.92;4.50;;;6.00;99.90;;;;;;5062236;28;20025;-44
2021/11/05 06:03:08;;;;;;;44.17;4.25;;;6.00;99.90;;;;;;5059694;28;20025;-43
2021/11/05 06:05:34;;;;;;;28.95;4.40;;;6.00;99.90;;;;;;5064736;28;20479;-43
2021/11/05 06:07:59;;;;;;;27.38;4.80;;;6.00;99.90;;;;;;5056664;28;20107;-43
2021/11/05 06:10:25;;;;;;;15.30;4.15;;;6.00;99.90;;;;;;5066044;28;20429;-43
2021/11/05 06:12:50;;;;;;;36.40;4.97;;;6.00;99.90;;;;;;5055090;28;20035;-43
2021/11/05 06:15:16;;;;;;;30.60;5.45;;;6.00;99.90;;;;;;5067468;28;20024;-42
2021/11/05 06:17:41;;;;;;;42.60;5.10;;;6.00;99.90;;;;;;5054654;28;20059;-43
2021/11/05 06:20:07;;;;;;;24.48;4.85;;;6.00;99.90;;;;;;5066946;28;20115;-43
2021/11/05 06:22:36;;;;;;;21.25;4.95;;;5.90;99.90;;;;;;5054458;28;20510;-42
2021/11/05 06:25:03;;;;;;;21.20;4.80;;;5.90;99.90;;;;;;5066943;28;20039;-43
2021/11/05 06:27:29;;;;;;;12.15;4.82;;;6.00;99.90;;;;;;5054109;28;20115;-42
2021/11/05 06:29:55;;;;;;;20.20;5.28;;;5.90;99.90;;;;;;5066543;28;20107;-42
2021/11/05 06:32:22;;;;;;;15.30;5.07;;;5.90;99.90;;;;;;5055082;28;20043;-43
2021/11/05 06:34:49;;;;;;;16.90;5.25;;;6.00;99.90;;;;;;5063104;28;20119;-43
2021/11/05 06:37:15;;;;;;;23.67;5.32;;;6.00;99.90;;;;;;5059669;28;20476;-42
2021/11/05 06:39:43;;;;;;;21.38;5.07;;;6.00;99.90;;;;;;5046645;28;20042;-43
2021/11/05 06:42:10;;;;;;;11.50;4.88;;;5.90;99.90;;;;;;5049688;28;20020;-42
2021/11/05 06:44:35;;;;;;;25.95;4.97;;;6.00;99.90;;;;;;5057980;28;20423;-42
2021/11/05 06:47:01;;;;;;;16.90;5.30;;;6.00;99.90;;;;;;5062846;28;20037;-43
2021/11/05 06:49:27;;;;;;;17.67;4.75;;;6.00;99.90;;;;;;5055971;28;20029;-43
2021/11/05 06:51:55;;;;;;;26.02;5.40;;;6.00;99.90;;;;;;5046613;28;20492;-44
2021/11/05 06:54:24;;;;;;;25.40;6.97;;;6.00;99.90;;;;;;5062786;28;20020;-43
2021/11/05 06:56:51;;;;;;;23.35;6.38;;;6.00;99.90;;;;;;5056481;28;20040;-43
2021/11/05 06:59:17;;;;;;;19.45;6.13;;;6.00;99.90;;;;;;5056493;28;20074;-44
2021/11/05 07:01:43;;;;;;;24.92;6.05;;;6.00;99.90;;;;;;5045088;28;20037;-42
2021/11/05 07:04:08;;;;;;;24.10;5.70;;;6.00;99.90;;;;;;5058224;28;20025;-42
2021/11/05 07:06:34;;;;;;;13.65;5.53;;;6.00;99.90;;;;;;5045652;28;20526;-42
2021/11/05 07:09:02;;;;;;;16.20;5.50;;;6.00;99.90;;;;;;5057267;28;20025;-42
2021/11/05 07:11:28;;;;;;;21.48;5.70;;;6.00;99.90;;;;;;5045670;28;20084;-42
2021/11/05 07:13:54;;;;;;;9.85;4.95;;;6.10;99.90;;;;;;5056027;28;20051;-42
2021/11/05 07:16:21;;;;;;;16.55;4.97;;;6.10;99.90;;;;;;5046780;28;20430;-42
2021/11/05 07:18:47;;;;;;;14.00;5.60;;;6.10;99.90;;;;;;5052490;28;20039;-42
2021/11/05 07:21:13;;;;;;;20.00;5.63;;;6.10;99.90;;;;;;5049310;28;20472;-42
2021/11/05 07:23:39;;;;;;;16.90;5.38;;;6.10;99.90;;;;;;5049781;28;20020;-43
2021/11/05 07:26:09;;;;;;;10.55;5.47;;;6.10;99.90;;;;;;5052408;28;20036;-43
2021/11/05 07:28:34;;;;;;;19.65;5.78;;;6.10;99.90;;;;;;5049895;28;20017;-43
2021/11/05 07:31:00;;;;;;;10.40;5.70;;;6.20;99.90;;;;;;5054264;28;20056;-43
2021/11/05 07:33:25;;;;;;;12.48;5.07;;;6.20;99.90;;;;;;5047607;28;20150;-43
2021/11/05 07:35:51;;;;;;;16.85;5.80;;;6.20;99.90;;;;;;5059100;28;20427;-43
2021/11/05 07:38:16;;;;;;;8.70;6.30;;;6.20;99.90;;;;;;5048672;28;20021;-43
2021/11/05 07:40:42;;;;;;;12.63;5.40;;;6.20;99.90;;;;;;5058300;28;20025;-43
2021/11/05 07:43:08;;;;;;;15.00;6.47;;;6.20;99.90;;;;;;5047170;28;20528;-42
2021/11/05 07:45:34;;;;;;;25.02;6.15;;;6.30;99.90;;;;;;5057655;28;20025;-42
2021/11/05 07:48:00;;;;;;;23.63;6.00;;;6.30;99.90;;;;;;5046524;28;20025;-42
2021/11/05 07:50:27;;;;;;;30.02;5.80;;;6.30;99.90;;;;;;5058329;28;20396;-42
2021/11/05 07:52:53;;;;;;;17.08;6.57;;;6.30;99.90;;;;;;5045570;28;20434;-43
2021/11/05 07:55:19;;;;;;;20.38;6.28;;;6.40;99.90;;;;;;5057720;28;20041;-43
2021/11/05 07:57:45;;;;;;;18.52;6.78;;;6.40;99.90;;;;;;5046505;28;20053;-44
2021/11/05 08:00:14;;;;;;;17.38;5.93;;;6.40;99.90;;;;;;5054370;28;20016;-43
2021/11/05 08:02:40;;;;;;;25.77;6.53;;;6.40;99.90;;;;;;5048555;28;20036;-42
2021/11/05 08:05:08;;;;;;;19.30;6.07;;;6.40;99.90;;;;;;5050082;28;20032;-43
2021/11/05 08:07:34;;;;;;;16.60;5.53;;;6.50;99.90;;;;;;5060133;28;20060;-45
2021/11/05 08:10:00;;;;;;;35.00;6.93;;;6.50;99.90;;;;;;5061344;28;20060;-43
2021/11/05 08:12:25;;;;;;;18.58;6.50;;;6.50;99.90;;;;;;5056657;28;20037;-43
2021/11/05 08:14:50;;;;;;;18.70;5.75;;;6.60;99.90;;;;;;5063757;28;20106;-42
2021/11/05 08:17:16;;;;;;;19.85;6.07;;;6.60;99.90;;;;;;5054658;28;20132;-43
2021/11/05 08:19:42;;;;;;;43.53;6.38;;;6.60;99.90;;;;;;5062491;28;20614;-43
2021/11/05 08:22:08;;;;;;;21.92;6.00;;;6.60;99.90;;;;;;5056049;28;20438;-43
2021/11/05 08:24:33;;;;;;;15.05;5.75;;;6.70;99.90;;;;;;5065549;28;20035;-44
2021/11/05 08:26:59;;;;;;;21.50;5.70;;;6.70;99.90;;;;;;5052182;28;20024;-43
2021/11/05 08:29:27;;;;;;;15.60;5.82;;;6.70;99.90;;;;;;5066833;28;20123;-43
2021/11/05 08:31:52;;;;;;;17.80;6.20;;;6.70;99.90;;;;;;5055897;28;20029;-43
2021/11/05 08:34:18;;;;;;;9.70;6.13;;;6.70;99.90;;;;;;5068607;28;20033;-42
2021/11/05 08:36:44;;;;;;;10.40;6.20;;;6.70;99.90;;;;;;5057228;28;20061;-43
2021/11/05 08:39:09;;;;;;;7.40;5.80;;;6.70;99.90;;;;;;5067169;28;20476;-43
2021/11/05 08:41:35;;;;;;;6.28;5.68;;;6.80;99.90;;;;;;5063360;28;20059;-43
2021/11/05 08:44:01;;;;;;;6.88;5.93;;;6.80;99.90;;;;;;5052803;28;20029;-43
2021/11/05 08:46:29;;;;;;;7.72;5.97;;;6.80;99.90;;;;;;5054496;28;20117;-42
2021/11/05 08:48:59;;;;;;;7.07;5.60;;;6.80;99.90;;;;;;5053994;28;20024;-42
2021/11/05 08:51:25;;;;;;;7.38;6.03;;;6.90;99.90;;;;;;5051698;28;20128;-43
2021/11/05 08:53:51;;;;;;;6.70;5.38;;;6.90;99.90;;;;;;5056470;28;20037;-43
2021/11/05 08:56:17;;;;;;;7.75;5.68;;;7.00;99.90;;;;;;5050013;28;20033;-43
2021/11/05 08:58:44;;;;;;;6.97;5.38;;;7.00;99.90;;;;;;5058466;28;20480;-43
2021/11/05 09:01:11;;;;;;;9.43;5.45;;;7.10;99.90;;;;;;5049299;28;20028;-42
2021/11/05 09:03:36;;;;;;;7.10;5.43;;;7.20;99.90;;;;;;5059298;28;20514;-42
2021/11/05 09:06:03;;;;;;;6.75;4.35;;;7.20;99.90;;;;;;5048853;28;20078;-42
2021/11/05 09:08:30;;;;;;;9.43;6.10;;;7.30;99.90;;;;;;5059491;28;20106;-42
2021/11/05 09:11:04;;;;;;;6.45;5.68;;;7.40;99.90;;;;;;5048032;28;20033;-43
2021/11/05 09:13:34;;;;;;;6.22;4.95;;;7.50;99.90;;;;;;5059924;28;20492;-42
2021/11/05 09:16:00;;;;;;;10.50;5.32;;;7.50;99.90;;;;;;5047660;28;20078;-42
2021/11/05 09:18:26;;;;;;;10.57;5.03;;;7.60;99.90;;;;;;5060458;28;20024;-43
2021/11/05 09:20:52;;;;;;;7.85;4.97;;;7.60;99.90;;;;;;5047621;28;20027;-42
2021/11/05 09:23:17;;;;;;;5.75;3.55;;;7.60;99.90;;;;;;5057092;28;20028;-42
2021/11/05 09:25:43;;;;;;;7.47;5.30;;;7.70;99.90;;;;;;5048544;28;20032;-42
2021/11/05 09:28:09;;;;;;;6.53;4.10;;;7.70;99.90;;;;;;5056518;28;20036;-42
2021/11/05 09:30:35;;;;;;;8.05;4.85;;;7.80;99.90;;;;;;5050239;28;20187;-42
2021/11/05 09:33:01;;;;;;;7.25;5.43;;;7.80;99.90;;;;;;5053709;28;20101;-42
2021/11/05 09:35:27;;;;;;;6.68;4.82;;;7.90;99.90;;;;;;5053752;28;20029;-42
2021/11/05 09:37:53;;;;;;;6.90;4.70;;;7.90;99.90;;;;;;5050717;28;20021;-42
2021/11/05 09:40:23;;;;;;;5.75;4.82;;;8.00;99.90;;;;;;5055882;28;20029;-42
2021/11/05 09:42:51;;;;;;;7.20;5.95;;;8.10;99.90;;;;;;5048855;28;20107;-42
2021/11/05 09:45:18;;;;;;;6.25;5.07;;;8.20;99.90;;;;;;5057559;28;20792;-42
2021/11/05 09:47:44;;;;;;;9.07;5.07;;;8.30;99.90;;;;;;5047988;28;20016;-43
2021/11/05 09:50:14;;;;;;;9.63;4.82;;;8.40;99.90;;;;;;5057873;28;20070;-42
2021/11/05 09:52:40;;;;;;;8.02;4.97;;;8.60;99.90;;;;;;5047861;28;20044;-42
2021/11/05 09:55:09;;;;;;;7.47;4.78;;;8.80;99.90;;;;;;5059074;28;20036;-43
2021/11/05 09:57:35;;;;;;;4.80;3.92;;;9.00;99.90;;;;;;5045917;28;20401;-42
2021/11/05 10:00:01;;;;;;;7.70;4.60;;;9.20;99.90;;;;;;5058937;28;20028;-42
2021/11/05 10:02:26;;;;;;;6.75;3.67;;;9.40;99.90;;;;;;5047291;28;20035;-42
2021/11/05 10:04:52;;;;;;;6.35;3.75;;;9.50;99.90;;;;;;5058135;28;20021;-42
2021/11/05 10:07:18;;;;;;;3.58;2.90;;;9.70;99.90;;;;;;5047277;28;20472;-43
2021/11/05 10:09:50;;;;;;;6.75;3.72;;;9.80;99.90;;;;;;5057236;28;20392;-42
2021/11/05 10:12:18;;;;;;;7.95;4.03;;;9.90;99.90;;;;;;5047487;28;20033;-43
2021/11/05 10:14:52;;;;;;;4.85;3.42;;;10.00;99.90;;;;;;5055545;28;20170;-42
2021/11/05 10:17:17;;;;;;;5.07;3.20;;;10.00;99.90;;;;;;5049230;28;20036;-42
2021/11/05 10:20:02;;;;;;;3.50;2.67;;;10.10;99.90;;;;;;5053372;28;20024;-46
2021/11/05 10:22:49;;;;;;;4.50;2.50;;;10.10;99.90;;;;;;5048866;28;20115;-42
2021/11/05 10:25:31;;;;;;;5.30;2.42;;;10.10;99.90;;;;;;5057539;28;20119;-42
2021/11/05 10:28:10;;;;;;;7.57;2.45;;;10.10;99.90;;;;;;5026902;28;20541;-44
2021/11/05 10:30:44;;;;;;;3.97;2.05;;;10.10;99.90;;;;;;5054786;28;20055;-43
2021/11/05 10:33:12;;;;;;;4.25;2.10;;;10.10;99.90;;;;;;5045380;28;20044;-44
2021/11/05 10:35:40;;;;;;;6.10;2.40;;;10.10;99.90;;;;;;5057495;28;20617;-44
2021/11/05 10:38:10;;;;;;;5.18;2.00;;;10.10;99.90;;;;;;5048006;28;20029;-42
2021/11/05 10:40:43;;;;;;;4.45;2.30;;;10.20;99.90;;;;;;5054424;28;20539;-42
2021/11/05 10:43:18;;;;;;;4.07;2.42;;;10.20;99.90;;;;;;5049486;28;20059;-42
2021/11/05 10:45:44;;;;;;;4.43;2.42;;;10.30;99.90;;;;;;5054571;28;20488;-43
2021/11/05 10:48:13;;;;;;;4.03;2.55;;;10.20;99.90;;;;;;5049602;28;20029;-43
2021/11/05 10:50:49;;;;;;;4.22;2.35;;;10.30;99.90;;;;;;5052692;28;20566;-43
2021/11/05 10:53:18;;;;;;;4.22;2.30;;;10.30;99.90;;;;;;5049548;28;20451;-43
2021/11/05 10:55:56;;;;;;;5.20;1.92;;;10.30;99.90;;;;;;5050970;28;20103;-43
2021/11/05 10:58:34;;;;;;;3.80;2.08;;;10.40;99.90;;;;;;5051385;28;20044;-42
2021/11/05 11:01:05;;;;;;;3.75;2.30;;;10.40;99.90;;;;;;5052449;28;20028;-43
2021/11/05 11:03:38;;;;;;;4.82;2.42;;;10.50;99.90;;;;;;5051134;28;20132;-42
2021/11/05 11:06:03;;;;;;;;;;;10.60;99.90;;;;;;5052624;28;20162;-43
2021/11/05 11:08:32;;;;;;;5.93;2.40;;;10.80;99.90;;;;;;5052161;28;19996;-43
2021/11/05 11:11:22;;;;;;;3.17;2.20;;;10.90;99.90;;;;;;5049035;28;20020;-44
2021/11/05 11:13:57;;;;;;;4.30;2.00;;;11.10;99.90;;;;;;5040071;28;20033;-44
2021/11/05 11:16:29;;;;;;;4.95;1.67;;;11.30;99.90;;;;;;5050718;28;20498;-43
2021/11/05 11:19:00;;;;;;;4.35;1.80;;;11.50;99.90;;;;;;5052031;28;20032;-43
2021/11/05 11:21:32;;;;;;;6.43;2.65;;;11.70;99.90;;;;;;5050172;28;20582;-43
2021/11/05 11:23:59;;;;;;;3.90;2.35;;;11.80;99.90;;;;;;5053320;28;20037;-43
2021/11/05 11:26:27;;;;;;;4.95;2.10;;;12.00;99.90;;;;;;5048855;28;20024;-44
2021/11/05 11:28:52;;;;;;;6.03;2.03;;;12.00;99.90;;;;;;5054233;28;20135;-44
2021/11/05 11:31:18;;;;;;;2.72;1.75;;;12.10;99.90;;;;;;5050077;28;20143;-43
2021/11/05 11:33:45;;;;;;;5.18;1.80;;;12.20;99.90;;;;;;5054067;28;20464;-44
2021/11/05 11:36:12;;;;;;;5.15;1.90;;;12.20;99.90;;;;;;5058195;28;20017;-44
2021/11/05 11:38:39;;;;;;;4.95;1.90;;;12.30;99.90;;;;;;5054114;28;20020;-43
2021/11/05 11:41:09;;;;;;;4.25;1.60;;;12.30;99.90;;;;;;5046391;28;20040;-43
2021/11/05 11:43:36;;;;;;;4.53;1.92;;;12.40;99.90;;;;;;5057366;28;20024;-43
2021/11/05 11:46:02;;;;;;;4.72;2.03;;;12.40;99.90;;;;;;5045855;28;20035;-43
2021/11/05 11:48:50;;;;;;;4.75;1.50;;;12.30;99.90;;;;;;5058013;28;20032;-43
2021/11/05 11:51:24;;;;;;;2.22;1.38;;;12.40;99.90;;;;;;5044879;28;20040;-46
2021/11/05 11:53:53;;;;;;;5.70;1.55;;;12.40;99.90;;;;;;5052892;28;20021;-43
2021/11/05 11:56:26;;;;;;;7.38;1.10;;;12.40;99.90;;;;;;5061112;28;20429;-42
2021/11/05 11:58:57;;;;;;;4.97;1.30;;;12.40;99.90;;;;;;5059279;28;20021;-43
2021/11/05 12:01:25;;;;;;;2.00;0.90;;;12.40;99.90;;;;;;5045926;28;20021;-44
2021/11/05 12:03:53;;;;;;;3.53;1.33;;;12.30;99.90;;;;;;5057476;28;20089;-43
2021/11/05 12:06:19;;;;;;;2.28;0.95;;;12.30;99.90;;;;;;5049384;28;20538;-44
2021/11/05 12:08:45;;;;;;;4.43;0.82;;;12.30;99.90;;;;;;5060228;28;20029;-44
2021/11/05 12:11:11;;;;;;;4.15;0.80;;;12.30;99.90;;;;;;5050457;28;20032;-43
2021/11/05 12:13:36;;;;;;;3.65;0.85;;;12.40;99.90;;;;;;5057597;28;20062;-43
2021/11/05 12:16:29;;;;;;;2.97;1.00;;;12.40;99.90;;;;;;5053523;28;20028;-43
2021/11/05 12:18:54;;;;;;;4.63;1.05;;;12.40;99.90;;;;;;5057511;28;20031;-43
2021/11/05 12:21:21;;;;;;;2.78;1.00;;;12.40;99.90;;;;;;5052392;28;20029;-44
2021/11/05 12:24:12;;;;;;;3.05;0.90;;;12.40;99.90;;;;;;5055899;28;20032;-44
2021/11/05 12:26:42;;;;;;;5.32;1.40;;;12.40;99.90;;;;;;5050614;28;20472;-43
2021/11/05 12:29:07;;;;;;;2.72;1.15;;;12.40;99.90;;;;;;5057135;28;20527;-43
2021/11/05 12:31:40;;;;;;;4.47;1.02;;;12.40;99.90;;;;;;5052733;28;20036;-44
2021/11/05 12:34:36;;;;;;;2.13;0.70;;;12.50;99.90;;;;;;5055301;28;20058;-43
2021/11/05 12:37:05;;;;;;;4.10;1.75;;;12.50;99.90;;;;;;5050573;28;20048;-43
2021/11/05 12:39:37;;;;;;;2.33;0.90;;;12.50;99.90;;;;;;5057061;28;20024;-43
2021/11/05 12:42:15;;;;;;;2.75;0.80;;;12.50;99.90;;;;;;5051606;28;20025;-42
2021/11/05 12:45:01;;;;;;;3.85;0.73;;;12.50;99.90;;;;;;5056909;28;20787;-41
2021/11/05 12:47:57;;;;;;;1.95;0.80;;;12.50;99.90;;;;;;5049534;28;20025;-43
2021/11/05 12:50:28;;;;;;;1.60;1.13;;;12.40;99.90;;;;;;5061545;28;20108;-42
2021/11/05 12:53:07;;;;;;;4.00;0.80;;;12.30;99.90;;;;;;5048941;28;20033;-43
2021/11/05 12:55:40;;;;;;;2.70;0.60;;;12.20;99.90;;;;;;5060305;28;20017;-43